sensor_id;sensor_type;location;lat;lon;timestamp;pressure;altitude;pressure_sealevel;temperature;humidity
38038;BME280;23843;51.320;12.340;2024-02-23T00:02:04;97386.63;;;13.11;64.93
38038;BME280;23843;51.320;12.340;2024-02-23T00:04:30;97380.72;;;13.12;65.24
38038;BME280;23843;51.320;12.340;2024-02-23T00:06:56;97365.97;;;13.12;65.29
38038;BME280;23843;51.320;12.340;2024-02-23T00:09:21;97387.16;;;13.13;64.84
38038;BME280;23843;51.320;12.340;2024-02-23T00:11:47;97387.97;;;13.13;64.85
38038;BME280;23843;51.320;12.340;2024-02-23T00:14:12;97393.56;;;13.13;65.05
38038;BME280;23843;51.320;12.340;2024-02-23T00:16:38;97397.16;;;13.14;64.93
38038;BME280;23843;51.320;12.340;2024-02-23T00:19:06;97422.25;;;13.14;64.84
38038;BME280;23843;51.320;12.340;2024-02-23T00:21:32;97433.41;;;13.14;64.71
38038;BME280;23843;51.320;12.340;2024-02-23T00:23:57;97438.97;;;13.14;64.48
38038;BME280;23843;51.320;12.340;2024-02-23T00:26:23;97445.38;;;13.14;64.85
38038;BME280;23843;51.320;12.340;2024-02-23T00:28:48;97445.38;;;13.14;64.54
38038;BME280;23843;51.320;12.340;2024-02-23T00:31:14;97450.59;;;13.16;64.69
38038;BME280;23843;51.320;12.340;2024-02-23T00:33:39;97460.63;;;13.17;64.59
38038;BME280;23843;51.320;12.340;2024-02-23T00:36:06;97460.13;;;13.15;64.59
38038;BME280;23843;51.320;12.340;2024-02-23T00:38:31;97467.34;;;13.16;64.84
38038;BME280;23843;51.320;12.340;2024-02-23T00:40:57;97467.34;;;13.16;64.67
38038;BME280;23843;51.320;12.340;2024-02-23T00:43:22;97476.03;;;13.14;64.51
38038;BME280;23843;51.320;12.340;2024-02-23T00:45:48;97479.97;;;13.13;64.26
38038;BME280;23843;51.320;12.340;2024-02-23T00:48:13;97480.56;;;13.10;64.68
38038;BME280;23843;51.320;12.340;2024-02-23T00:50:39;97495.66;;;13.09;64.18
38038;BME280;23843;51.320;12.340;2024-02-23T00:53:06;97501.06;;;13.06;64.38
38038;BME280;23843;51.320;12.340;2024-02-23T00:55:31;97498.28;;;13.06;64.37
38038;BME280;23843;51.320;12.340;2024-02-23T00:57:57;97503.66;;;13.02;64.52
38038;BME280;23843;51.320;12.340;2024-02-23T01:00:22;97502.34;;;13.00;64.76
38038;BME280;23843;51.320;12.340;2024-02-23T01:02:48;97500.69;;;12.99;64.36
38038;BME280;23843;51.320;12.340;2024-02-23T01:05:13;97487.09;;;12.97;64.54
38038;BME280;23843;51.320;12.340;2024-02-23T01:07:39;97489.34;;;12.95;64.72
38038;BME280;23843;51.320;12.340;2024-02-23T01:10:07;97510.34;;;12.93;64.39
38038;BME280;23843;51.320;12.340;2024-02-23T01:12:32;97525.44;;;12.92;64.51
38038;BME280;23843;51.320;12.340;2024-02-23T01:14:58;97534.09;;;12.90;64.31
38038;BME280;23843;51.320;12.340;2024-02-23T01:17:23;97551.13;;;12.88;64.50
38038;BME280;23843;51.320;12.340;2024-02-23T01:19:48;97551.13;;;12.88;64.19
38038;BME280;23843;51.320;12.340;2024-02-23T01:22:14;97579.31;;;12.87;64.18
38038;BME280;23843;51.320;12.340;2024-02-23T01:24:39;97592.75;;;12.85;63.96
38038;BME280;23843;51.320;12.340;2024-02-23T01:27:06;97605.34;;;12.82;63.75
38038;BME280;23843;51.320;12.340;2024-02-23T01:29:32;97600.09;;;12.81;63.87
38038;BME280;23843;51.320;12.340;2024-02-23T01:31:58;97611.53;;;12.79;63.86
38038;BME280;23843;51.320;12.340;2024-02-23T01:34:23;97610.72;;;12.79;63.78
38038;BME280;23843;51.320;12.340;2024-02-23T01:36:49;97605.97;;;12.79;64.07
38038;BME280;23843;51.320;12.340;2024-02-23T01:39:14;97611.22;;;12.81;63.91
38038;BME280;23843;51.320;12.340;2024-02-23T01:41:40;97644.66;;;12.81;63.81
38038;BME280;23843;51.320;12.340;2024-02-23T01:44:06;97651.38;;;12.80;63.94
38038;BME280;23843;51.320;12.340;2024-02-23T01:46:32;97655.28;;;12.79;63.90
38038;BME280;23843;51.320;12.340;2024-02-23T01:48:58;97647.75;;;12.79;63.84
38038;BME280;23843;51.320;12.340;2024-02-23T01:51:24;97662.84;;;12.78;63.80
38038;BME280;23843;51.320;12.340;2024-02-23T01:53:50;97657.25;;;12.78;63.83
38038;BME280;23843;51.320;12.340;2024-02-23T01:56:16;97670.69;;;12.76;63.56
38038;BME280;23843;51.320;12.340;2024-02-23T01:58:42;97676.59;;;12.75;63.54
38038;BME280;23843;51.320;12.340;2024-02-23T02:01:09;97670.63;;;12.68;63.70
38038;BME280;23843;51.320;12.340;2024-02-23T02:03:35;97677.97;;;12.64;63.73
38038;BME280;23843;51.320;12.340;2024-02-23T02:06:02;97692.53;;;12.61;63.63
38038;BME280;23843;51.320;12.340;2024-02-23T02:08:27;97679.56;;;12.56;63.91
38038;BME280;23843;51.320;12.340;2024-02-23T02:10:53;97684.91;;;12.53;63.69
38038;BME280;23843;51.320;12.340;2024-02-23T02:13:19;97687.00;;;12.47;63.79
38038;BME280;23843;51.320;12.340;2024-02-23T02:15:45;97706.28;;;12.43;63.90
38038;BME280;23843;51.320;12.340;2024-02-23T02:18:11;97715.56;;;12.39;63.36
38038;BME280;23843;51.320;12.340;2024-02-23T02:20:40;97728.47;;;12.35;63.38
38038;BME280;23843;51.320;12.340;2024-02-23T02:23:15;97744.97;;;12.31;63.10
38038;BME280;23843;51.320;12.340;2024-02-23T02:25:41;97756.72;;;12.28;63.60
38038;BME280;23843;51.320;12.340;2024-02-23T02:28:06;97761.28;;;12.24;63.07
38038;BME280;23843;51.320;12.340;2024-02-23T02:30:32;97755.47;;;12.21;62.87
38038;BME280;23843;51.320;12.340;2024-02-23T02:32:57;97765.59;;;12.17;62.46
38038;BME280;23843;51.320;12.340;2024-02-23T02:35:24;97775.19;;;12.11;63.19
38038;BME280;23843;51.320;12.340;2024-02-23T02:37:50;97784.16;;;12.07;63.32
38038;BME280;23843;51.320;12.340;2024-02-23T02:40:15;97777.03;;;12.01;63.40
38038;BME280;23843;51.320;12.340;2024-02-23T02:42:43;97782.72;;;11.96;63.35
38038;BME280;23843;51.320;12.340;2024-02-23T02:45:09;97775.50;;;11.95;62.92
38038;BME280;23843;51.320;12.340;2024-02-23T02:47:34;97798.34;;;11.92;63.11
38038;BME280;23843;51.320;12.340;2024-02-23T02:49:59;97793.41;;;11.89;63.34
38038;BME280;23843;51.320;12.340;2024-02-23T02:52:26;97804.03;;;11.87;63.36
38038;BME280;23843;51.320;12.340;2024-02-23T02:54:52;97814.63;;;11.85;63.33
38038;BME280;23843;51.320;12.340;2024-02-23T02:57:17;97825.25;;;11.83;62.81
38038;BME280;23843;51.320;12.340;2024-02-23T02:59:43;97838.09;;;11.79;63.19
38038;BME280;23843;51.320;12.340;2024-02-23T03:02:27;97845.09;;;11.77;63.32
38038;BME280;23843;51.320;12.340;2024-02-23T03:04:53;97834.03;;;11.71;63.16
38038;BME280;23843;51.320;12.340;2024-02-23T03:07:18;97848.88;;;11.67;63.22
38038;BME280;23843;51.320;12.340;2024-02-23T03:09:45;97857.28;;;11.62;63.09
38038;BME280;23843;51.320;12.340;2024-02-23T03:12:11;97854.59;;;11.57;63.11
38038;BME280;23843;51.320;12.340;2024-02-23T03:14:36;97851.91;;;11.52;62.60
38038;BME280;23843;51.320;12.340;2024-02-23T03:17:02;97864.44;;;11.49;62.99
38038;BME280;23843;51.320;12.340;2024-02-23T03:19:28;97865.06;;;11.46;62.65
38038;BME280;23843;51.320;12.340;2024-02-23T03:21:53;97870.09;;;11.44;62.40
38038;BME280;23843;51.320;12.340;2024-02-23T03:24:19;97883.16;;;11.44;62.79
38038;BME280;23843;51.320;12.340;2024-02-23T03:26:45;97894.59;;;11.42;62.77
38038;BME280;23843;51.320;12.340;2024-02-23T03:29:11;97900.78;;;11.39;62.47
38038;BME280;23843;51.320;12.340;2024-02-23T03:31:37;97912.19;;;11.38;62.28
38038;BME280;23843;51.320;12.340;2024-02-23T03:34:02;97916.38;;;11.35;62.44
38038;BME280;23843;51.320;12.340;2024-02-23T03:36:28;97915.34;;;11.31;62.47
38038;BME280;23843;51.320;12.340;2024-02-23T03:38:54;97930.44;;;11.25;62.51
38038;BME280;23843;51.320;12.340;2024-02-23T03:41:19;97926.88;;;11.19;62.19
38038;BME280;23843;51.320;12.340;2024-02-23T03:43:46;97935.59;;;11.13;62.69
38038;BME280;23843;51.320;12.340;2024-02-23T03:46:11;97941.81;;;11.05;62.32
38038;BME280;23843;51.320;12.340;2024-02-23T03:48:37;97939.41;;;10.98;62.26
38038;BME280;23843;51.320;12.340;2024-02-23T03:51:03;97938.41;;;10.89;62.58
38038;BME280;23843;51.320;12.340;2024-02-23T03:53:28;97937.44;;;10.80;62.15
38038;BME280;23843;51.320;12.340;2024-02-23T03:55:54;97946.13;;;10.73;62.11
38038;BME280;23843;51.320;12.340;2024-02-23T03:58:19;97953.66;;;10.68;62.49
38038;BME280;23843;51.320;12.340;2024-02-23T04:00:46;97967.91;;;10.61;62.28
38038;BME280;23843;51.320;12.340;2024-02-23T04:03:12;97969.91;;;10.56;62.72
38038;BME280;23843;51.320;12.340;2024-02-23T04:05:37;97977.47;;;10.50;62.46
38038;BME280;23843;51.320;12.340;2024-02-23T04:08:03;97983.59;;;10.47;62.32
38038;BME280;23843;51.320;12.340;2024-02-23T04:10:29;98001.97;;;10.43;62.21
38038;BME280;23843;51.320;12.340;2024-02-23T04:12:55;98006.97;;;10.41;62.56
38038;BME280;23843;51.320;12.340;2024-02-23T04:15:21;98013.41;;;10.36;62.66
38038;BME280;23843;51.320;12.340;2024-02-23T04:17:48;98017.88;;;10.32;62.70
38038;BME280;23843;51.320;12.340;2024-02-23T04:20:13;98033.19;;;10.30;62.53
38038;BME280;23843;51.320;12.340;2024-02-23T04:22:39;98042.06;;;10.27;62.47
38038;BME280;23843;51.320;12.340;2024-02-23T04:25:05;98032.38;;;10.24;62.62
38038;BME280;23843;51.320;12.340;2024-02-23T04:27:31;98037.41;;;10.22;62.60
38038;BME280;23843;51.320;12.340;2024-02-23T04:29:56;98033.53;;;10.18;62.50
38038;BME280;23843;51.320;12.340;2024-02-23T04:32:22;98039.66;;;10.15;62.53
38038;BME280;23843;51.320;12.340;2024-02-23T04:34:49;98044.94;;;10.11;62.66
38038;BME280;23843;51.320;12.340;2024-02-23T04:37:14;98044.72;;;10.08;62.73
38038;BME280;23843;51.320;12.340;2024-02-23T04:39:40;98036.13;;;10.04;62.61
38038;BME280;23843;51.320;12.340;2024-02-23T04:42:05;98045.84;;;10.02;62.60
38038;BME280;23843;51.320;12.340;2024-02-23T04:44:31;98051.97;;;9.99;62.90
38038;BME280;23843;51.320;12.340;2024-02-23T04:46:56;98049.50;;;9.97;62.86
38038;BME280;23843;51.320;12.340;2024-02-23T04:49:21;98063.34;;;9.97;62.77
38038;BME280;23843;51.320;12.340;2024-02-23T04:51:48;98080.00;;;9.97;62.80
38038;BME280;23843;51.320;12.340;2024-02-23T04:54:14;98083.06;;;9.96;62.71
38038;BME280;23843;51.320;12.340;2024-02-23T04:56:39;98096.09;;;9.95;62.56
38038;BME280;23843;51.320;12.340;2024-02-23T04:59:05;98097.50;;;9.93;62.52
38038;BME280;23843;51.320;12.340;2024-02-23T05:01:35;98105.28;;;9.91;62.56
38038;BME280;23843;51.320;12.340;2024-02-23T05:04:00;98112.78;;;9.90;62.83
38038;BME280;23843;51.320;12.340;2024-02-23T05:06:26;98122.19;;;9.89;62.92
38038;BME280;23843;51.320;12.340;2024-02-23T05:08:52;98114.16;;;9.88;62.77
38038;BME280;23843;51.320;12.340;2024-02-23T05:11:18;98128.34;;;9.86;62.87
38038;BME280;23843;51.320;12.340;2024-02-23T05:13:43;98120.28;;;9.85;62.51
38038;BME280;23843;51.320;12.340;2024-02-23T05:16:09;98107.28;;;9.80;62.93
38038;BME280;23843;51.320;12.340;2024-02-23T05:18:34;98118.94;;;9.77;63.02
38038;BME280;23843;51.320;12.340;2024-02-23T05:21:00;98114.25;;;9.72;62.73
38038;BME280;23843;51.320;12.340;2024-02-23T05:23:25;98126.75;;;9.70;62.59
38038;BME280;23843;51.320;12.340;2024-02-23T05:25:52;98139.50;;;9.66;62.80
38038;BME280;23843;51.320;12.340;2024-02-23T05:28:18;98129.28;;;9.61;62.60
38038;BME280;23843;51.320;12.340;2024-02-23T05:30:43;98123.47;;;9.58;62.48
38038;BME280;23843;51.320;12.340;2024-02-23T05:33:08;98129.59;;;9.55;62.45
38038;BME280;23843;51.320;12.340;2024-02-23T05:35:34;98145.38;;;9.54;62.50
38038;BME280;23843;51.320;12.340;2024-02-23T05:37:59;98172.56;;;9.52;62.28
38038;BME280;23843;51.320;12.340;2024-02-23T05:40:25;98179.19;;;9.51;62.32
38038;BME280;23843;51.320;12.340;2024-02-23T05:42:52;98187.50;;;9.51;62.43
38038;BME280;23843;51.320;12.340;2024-02-23T05:45:17;98177.25;;;9.52;62.93
38038;BME280;23843;51.320;12.340;2024-02-23T05:47:43;98186.69;;;9.51;62.28
38038;BME280;23843;51.320;12.340;2024-02-23T05:50:09;98190.28;;;9.51;62.38
38038;BME280;23843;51.320;12.340;2024-02-23T05:52:34;98185.56;;;9.52;62.30
38038;BME280;23843;51.320;12.340;2024-02-23T05:55:00;98186.41;;;9.52;62.29
38038;BME280;23843;51.320;12.340;2024-02-23T05:57:27;98181.16;;;9.51;62.31
38038;BME280;23843;51.320;12.340;2024-02-23T05:59:54;98184.22;;;9.49;62.29
38038;BME280;23843;51.320;12.340;2024-02-23T06:02:19;98183.66;;;9.47;62.24
38038;BME280;23843;51.320;12.340;2024-02-23T06:04:45;98204.44;;;9.45;62.18
38038;BME280;23843;51.320;12.340;2024-02-23T06:07:10;98209.16;;;9.44;62.07
38038;BME280;23843;51.320;12.340;2024-02-23T06:09:36;98194.78;;;9.42;62.59
38038;BME280;23843;51.320;12.340;2024-02-23T06:12:01;98192.81;;;9.43;62.46
38038;BME280;23843;51.320;12.340;2024-02-23T06:14:27;98208.63;;;9.42;62.54
38038;BME280;23843;51.320;12.340;2024-02-23T06:16:53;98222.75;;;9.41;62.31
38038;BME280;23843;51.320;12.340;2024-02-23T06:19:19;98219.16;;;9.40;62.43
38038;BME280;23843;51.320;12.340;2024-02-23T06:21:47;98206.41;;;9.39;62.44
38038;BME280;23843;51.320;12.340;2024-02-23T06:24:13;98214.16;;;9.37;62.52
38038;BME280;23843;51.320;12.340;2024-02-23T06:26:38;98231.63;;;9.37;62.62
38038;BME280;23843;51.320;12.340;2024-02-23T06:29:03;98242.16;;;9.35;62.75
38038;BME280;23843;51.320;12.340;2024-02-23T06:31:29;98238.56;;;9.35;62.47
38038;BME280;23843;51.320;12.340;2024-02-23T06:33:56;98248.81;;;9.34;62.50
38038;BME280;23843;51.320;12.340;2024-02-23T06:36:21;98265.16;;;9.36;62.58
38038;BME280;23843;51.320;12.340;2024-02-23T06:38:47;98265.72;;;9.38;62.36
38038;BME280;23843;51.320;12.340;2024-02-23T06:41:12;98260.16;;;9.38;62.64
38038;BME280;23843;51.320;12.340;2024-02-23T06:43:37;98269.59;;;9.37;62.60
38038;BME280;23843;51.320;12.340;2024-02-23T06:46:05;98262.94;;;9.38;62.75
38038;BME280;23843;51.320;12.340;2024-02-23T06:48:31;98279.28;;;9.40;62.61
38038;BME280;23843;51.320;12.340;2024-02-23T06:50:58;98277.34;;;9.40;62.53
38038;BME280;23843;51.320;12.340;2024-02-23T06:53:23;98288.72;;;9.38;62.62
38038;BME280;23843;51.320;12.340;2024-02-23T06:55:49;98284.84;;;9.40;62.52
38038;BME280;23843;51.320;12.340;2024-02-23T06:58:14;98274.84;;;9.38;62.72
38038;BME280;23843;51.320;12.340;2024-02-23T07:00:40;98276.53;;;9.40;62.54
38038;BME280;23843;51.320;12.340;2024-02-23T07:03:05;98282.63;;;9.42;62.50
38038;BME280;23843;51.320;12.340;2024-02-23T07:05:31;98281.78;;;9.41;62.50
38038;BME280;23843;51.320;12.340;2024-02-23T07:07:57;98286.22;;;9.42;62.72
38038;BME280;23843;51.320;12.340;2024-02-23T07:10:23;98279.56;;;9.43;62.77
38038;BME280;23843;51.320;12.340;2024-02-23T07:12:48;98307.81;;;9.45;62.62
38038;BME280;23843;51.320;12.340;2024-02-23T07:15:14;98336.09;;;9.47;62.61
38038;BME280;23843;51.320;12.340;2024-02-23T07:17:39;98343.00;;;9.50;62.69
38038;BME280;23843;51.320;12.340;2024-02-23T07:20:06;98334.69;;;9.50;62.63
38038;BME280;23843;51.320;12.340;2024-02-23T07:22:31;98317.78;;;9.51;62.62
38038;BME280;23843;51.320;12.340;2024-02-23T07:24:58;98316.41;;;9.54;62.76
38038;BME280;23843;51.320;12.340;2024-02-23T07:27:24;98336.66;;;9.54;62.80
38038;BME280;23843;51.320;12.340;2024-02-23T07:29:49;98329.44;;;9.53;62.48
38038;BME280;23843;51.320;12.340;2024-02-23T07:32:15;98328.59;;;9.53;62.44
38038;BME280;23843;51.320;12.340;2024-02-23T07:34:40;98330.53;;;9.52;62.46
38038;BME280;23843;51.320;12.340;2024-02-23T07:37:06;98331.91;;;9.50;62.30
38038;BME280;23843;51.320;12.340;2024-02-23T07:39:31;98345.78;;;9.50;62.61
38038;BME280;23843;51.320;12.340;2024-02-23T07:41:58;98352.72;;;9.52;62.42
38038;BME280;23843;51.320;12.340;2024-02-23T07:44:23;98378.50;;;9.53;62.31
38038;BME280;23843;51.320;12.340;2024-02-23T07:46:49;98387.66;;;9.53;62.31
38038;BME280;23843;51.320;12.340;2024-02-23T07:49:14;98389.03;;;9.56;62.14
38038;BME280;23843;51.320;12.340;2024-02-23T07:51:40;98398.19;;;9.56;62.16
38038;BME280;23843;51.320;12.340;2024-02-23T07:54:05;98387.38;;;9.55;62.24
38038;BME280;23843;51.320;12.340;2024-02-23T07:56:31;98389.88;;;9.56;62.13
38038;BME280;23843;51.320;12.340;2024-02-23T07:58:57;98388.22;;;9.55;62.15
38038;BME280;23843;51.320;12.340;2024-02-23T08:01:23;98381.84;;;9.55;62.09
38038;BME280;23843;51.320;12.340;2024-02-23T08:03:48;98381.84;;;9.55;61.96
38038;BME280;23843;51.320;12.340;2024-02-23T08:06:14;98392.91;;;9.55;61.76
38038;BME280;23843;51.320;12.340;2024-02-23T08:08:39;98394.88;;;9.54;61.80
38038;BME280;23843;51.320;12.340;2024-02-23T08:11:05;98405.38;;;9.52;61.89
38038;BME280;23843;51.320;12.340;2024-02-23T08:13:31;98419.53;;;9.56;61.93
38038;BME280;23843;51.320;12.340;2024-02-23T08:15:58;98416.19;;;9.59;61.61
38038;BME280;23843;51.320;12.340;2024-02-23T08:18:23;98402.91;;;9.61;61.71
38038;BME280;23843;51.320;12.340;2024-02-23T08:20:49;98402.34;;;9.64;61.71
38038;BME280;23843;51.320;12.340;2024-02-23T08:23:14;98392.63;;;9.66;61.50
38038;BME280;23843;51.320;12.340;2024-02-23T08:25:40;98399.56;;;9.69;61.48
38038;BME280;23843;51.320;12.340;2024-02-23T08:28:07;98396.22;;;9.72;61.47
38038;BME280;23843;51.320;12.340;2024-02-23T08:30:32;98380.97;;;9.74;61.38
38038;BME280;23843;51.320;12.340;2024-02-23T08:32:59;98384.03;;;9.78;61.50
38038;BME280;23843;51.320;12.340;2024-02-23T08:35:25;98390.97;;;9.86;61.28
38038;BME280;23843;51.320;12.340;2024-02-23T08:37:50;98385.38;;;9.96;61.30
38038;BME280;23843;51.320;12.340;2024-02-23T08:40:16;98385.66;;;10.04;61.27
38038;BME280;23843;51.320;12.340;2024-02-23T08:42:41;98392.59;;;10.12;61.26
38038;BME280;23843;51.320;12.340;2024-02-23T08:45:07;98394.81;;;10.20;61.14
38038;BME280;23843;51.320;12.340;2024-02-23T08:47:33;98402.28;;;10.25;60.83
38038;BME280;23843;51.320;12.340;2024-02-23T08:50:00;98403.41;;;10.29;60.89
38038;BME280;23843;51.320;12.340;2024-02-23T08:52:26;98405.88;;;10.35;60.78
38038;BME280;23843;51.320;12.340;2024-02-23T08:54:51;98414.16;;;10.45;60.65
38038;BME280;23843;51.320;12.340;2024-02-23T08:57:17;98415.81;;;10.51;60.98
38038;BME280;23843;51.320;12.340;2024-02-23T08:59:43;98403.03;;;10.56;60.49
38038;BME280;23843;51.320;12.340;2024-02-23T09:02:08;98413.28;;;10.60;60.91
38038;BME280;23843;51.320;12.340;2024-02-23T09:04:34;98421.59;;;10.65;60.89
38038;BME280;23843;51.320;12.340;2024-02-23T09:07:01;98432.66;;;10.75;60.90
38038;BME280;23843;51.320;12.340;2024-02-23T09:09:26;98440.41;;;10.83;60.65
38038;BME280;23843;51.320;12.340;2024-02-23T09:11:52;98435.94;;;10.92;60.68
38038;BME280;23843;51.320;12.340;2024-02-23T09:14:17;98434.75;;;11.04;60.74
38038;BME280;23843;51.320;12.340;2024-02-23T09:16:43;98425.53;;;11.13;60.65
38038;BME280;23843;51.320;12.340;2024-02-23T09:19:08;98423.81;;;11.22;60.08
38038;BME280;23843;51.320;12.340;2024-02-23T09:21:34;98409.59;;;11.29;59.90
38038;BME280;23843;51.320;12.340;2024-02-23T09:24:00;98418.22;;;11.27;59.93
38038;BME280;23843;51.320;12.340;2024-02-23T09:26:26;98430.44;;;11.26;59.63
38038;BME280;23843;51.320;12.340;2024-02-23T09:28:51;98432.44;;;11.21;59.87
38038;BME280;23843;51.320;12.340;2024-02-23T09:31:17;98431.34;;;11.17;60.10
38038;BME280;23843;51.320;12.340;2024-02-23T09:33:43;98434.66;;;11.19;60.06
38038;BME280;23843;51.320;12.340;2024-02-23T09:36:08;98428.25;;;11.23;60.11
38038;BME280;23843;51.320;12.340;2024-02-23T09:38:34;98414.59;;;11.32;59.34
38038;BME280;23843;51.320;12.340;2024-02-23T09:41:01;98413.72;;;11.37;60.01
38038;BME280;23843;51.320;12.340;2024-02-23T09:43:44;98422.28;;;11.45;60.15
38038;BME280;23843;51.320;12.340;2024-02-23T09:46:11;98427.22;;;11.53;60.21
38038;BME280;23843;51.320;12.340;2024-02-23T09:48:38;98436.91;;;11.61;59.94
38038;BME280;23843;51.320;12.340;2024-02-23T09:51:05;98425.13;;;11.69;59.98
38038;BME280;23843;51.320;12.340;2024-02-23T09:53:31;98439.59;;;11.76;59.83
38038;BME280;23843;51.320;12.340;2024-02-23T09:55:58;98435.09;;;11.80;59.27
38038;BME280;23843;51.320;12.340;2024-02-23T09:58:26;98438.72;;;11.81;59.17
38038;BME280;23843;51.320;12.340;2024-02-23T10:00:52;98420.09;;;11.81;59.21
38038;BME280;23843;51.320;12.340;2024-02-23T10:03:18;98425.09;;;11.79;58.87
38038;BME280;23843;51.320;12.340;2024-02-23T10:05:44;98445.69;;;11.78;59.13
38038;BME280;23843;51.320;12.340;2024-02-23T10:08:10;98436.81;;;11.76;58.68
38038;BME280;23843;51.320;12.340;2024-02-23T10:10:35;98440.13;;;11.78;58.96
38038;BME280;23843;51.320;12.340;2024-02-23T10:13:02;98446.25;;;11.80;58.71
38038;BME280;23843;51.320;12.340;2024-02-23T10:15:30;98440.97;;;11.79;58.96
38038;BME280;23843;51.320;12.340;2024-02-23T10:17:55;98431.75;;;11.83;58.82
38038;BME280;23843;51.320;12.340;2024-02-23T10:20:21;98446.78;;;11.82;58.97
38038;BME280;23843;51.320;12.340;2024-02-23T10:22:47;98451.25;;;11.83;58.81
38038;BME280;23843;51.320;12.340;2024-02-23T10:25:12;98455.38;;;11.86;58.28
38038;BME280;23843;51.320;12.340;2024-02-23T10:27:38;98460.09;;;11.85;58.00
38038;BME280;23843;51.320;12.340;2024-02-23T10:30:06;98463.72;;;11.86;58.82
38038;BME280;23843;51.320;12.340;2024-02-23T10:32:34;98457.59;;;11.89;58.51
38038;BME280;23843;51.320;12.340;2024-02-23T10:35:00;98452.25;;;11.92;58.25
38038;BME280;23843;51.320;12.340;2024-02-23T10:37:26;98455.31;;;11.91;58.22
38038;BME280;23843;51.320;12.340;2024-02-23T10:39:54;98470.13;;;11.86;58.52
38038;BME280;23843;51.320;12.340;2024-02-23T10:42:23;98475.41;;;11.88;58.00
38038;BME280;23843;51.320;12.340;2024-02-23T10:44:49;98471.22;;;11.90;58.02
38038;BME280;23843;51.320;12.340;2024-02-23T10:47:15;98472.94;;;11.81;57.79
38038;BME280;23843;51.320;12.340;2024-02-23T10:49:44;98473.50;;;11.78;58.04
38038;BME280;23843;51.320;12.340;2024-02-23T10:52:10;98476.88;;;11.75;58.09
38038;BME280;23843;51.320;12.340;2024-02-23T10:54:36;98472.69;;;11.73;57.68
38038;BME280;23843;51.320;12.340;2024-02-23T10:57:01;98479.97;;;11.68;57.29
38038;BME280;23843;51.320;12.340;2024-02-23T10:59:27;98493.03;;;11.68;57.78
38038;BME280;23843;51.320;12.340;2024-02-23T11:01:54;98502.78;;;11.65;57.44
38038;BME280;23843;51.320;12.340;2024-02-23T11:04:20;98501.13;;;11.64;57.45
38038;BME280;23843;51.320;12.340;2024-02-23T11:06:50;98498.59;;;11.68;58.05
38038;BME280;23843;51.320;12.340;2024-02-23T11:09:16;98506.13;;;11.67;57.95
38038;BME280;23843;51.320;12.340;2024-02-23T11:11:51;98504.72;;;11.65;57.74
38038;BME280;23843;51.320;12.340;2024-02-23T11:14:17;98506.97;;;11.63;57.25
38038;BME280;23843;51.320;12.340;2024-02-23T11:16:42;98514.47;;;11.62;57.17
38038;BME280;23843;51.320;12.340;2024-02-23T11:19:09;98510.34;;;11.60;57.65
38038;BME280;23843;51.320;12.340;2024-02-23T11:21:35;98503.66;;;11.61;57.29
38038;BME280;23843;51.320;12.340;2024-02-23T11:24:04;98493.06;;;11.63;57.77
38038;BME280;23843;51.320;12.340;2024-02-23T11:26:30;98501.38;;;11.68;57.03
38038;BME280;23843;51.320;12.340;2024-02-23T11:28:55;98508.59;;;11.69;57.00
38038;BME280;23843;51.320;12.340;2024-02-23T11:31:23;98508.91;;;11.67;56.94
38038;BME280;23843;51.320;12.340;2024-02-23T11:33:49;98506.41;;;11.66;56.53
38038;BME280;23843;51.320;12.340;2024-02-23T11:36:22;98507.84;;;11.58;56.88
38038;BME280;23843;51.320;12.340;2024-02-23T11:38:48;98501.16;;;11.54;56.90
38038;BME280;23843;51.320;12.340;2024-02-23T11:41:15;98511.50;;;11.54;57.63
38038;BME280;23843;51.320;12.340;2024-02-23T11:43:41;98493.66;;;11.55;56.81
38038;BME280;23843;51.320;12.340;2024-02-23T11:46:07;98488.09;;;11.55;57.20
38038;BME280;23843;51.320;12.340;2024-02-23T11:48:33;98486.16;;;11.55;57.08
38038;BME280;23843;51.320;12.340;2024-02-23T11:50:58;98493.09;;;11.58;57.74
38038;BME280;23843;51.320;12.340;2024-02-23T11:53:24;98487.22;;;11.64;57.41
38038;BME280;23843;51.320;12.340;2024-02-23T11:55:50;98486.06;;;11.70;57.23
38038;BME280;23843;51.320;12.340;2024-02-23T11:58:17;98492.75;;;11.75;57.28
38038;BME280;23843;51.320;12.340;2024-02-23T12:00:42;98503.03;;;11.74;57.00
38038;BME280;23843;51.320;12.340;2024-02-23T12:03:08;98498.00;;;11.71;56.57
38038;BME280;23843;51.320;12.340;2024-02-23T12:05:33;98504.69;;;11.70;57.02
38038;BME280;23843;51.320;12.340;2024-02-23T12:07:59;98502.50;;;11.67;56.08
38038;BME280;23843;51.320;12.340;2024-02-23T12:10:24;98509.47;;;11.64;56.89
38038;BME280;23843;51.320;12.340;2024-02-23T12:12:50;98501.41;;;11.63;56.24
38038;BME280;23843;51.320;12.340;2024-02-23T12:15:17;98508.41;;;11.60;56.58
38038;BME280;23843;51.320;12.340;2024-02-23T12:17:47;98500.88;;;11.56;56.70
38038;BME280;23843;51.320;12.340;2024-02-23T12:20:12;98497.28;;;11.55;56.48
38038;BME280;23843;51.320;12.340;2024-02-23T12:22:38;98495.91;;;11.53;56.50
38038;BME280;23843;51.320;12.340;2024-02-23T12:25:04;98495.91;;;11.53;56.42
38038;BME280;23843;51.320;12.340;2024-02-23T12:27:31;98501.72;;;11.56;56.34
38038;BME280;23843;51.320;12.340;2024-02-23T12:29:56;98500.03;;;11.60;56.55
38038;BME280;23843;51.320;12.340;2024-02-23T12:32:23;98491.16;;;11.58;56.03
38038;BME280;23843;51.320;12.340;2024-02-23T12:34:49;98499.50;;;11.58;56.90
38038;BME280;23843;51.320;12.340;2024-02-23T12:37:14;98495.03;;;11.57;56.69
38038;BME280;23843;51.320;12.340;2024-02-23T12:39:40;98490.31;;;11.58;55.80
38038;BME280;23843;51.320;12.340;2024-02-23T12:42:06;98496.44;;;11.55;55.99
38038;BME280;23843;51.320;12.340;2024-02-23T12:44:31;98495.66;;;11.49;56.13
38038;BME280;23843;51.320;12.340;2024-02-23T12:46:57;98503.75;;;11.46;56.42